createdAt,value
2023-03-27T00:01:42.609Z,65.50
2023-03-27T00:04:09.109Z,65.36
2023-03-27T00:06:35.567Z,66.65
2023-03-27T00:09:01.914Z,66.57
2023-03-27T00:11:28.253Z,66.89
2023-03-27T00:13:54.923Z,66.44
2023-03-27T00:16:21.659Z,65.80
2023-03-27T00:18:48.240Z,66.11
2023-03-27T00:21:14.570Z,66.07
2023-03-27T00:23:40.940Z,64.53
2023-03-27T00:26:07.334Z,64.54
2023-03-27T00:28:33.682Z,64.04
2023-03-27T00:31:00.309Z,63.43
2023-03-27T00:33:26.789Z,63.65
2023-03-27T00:35:53.165Z,62.04
2023-03-27T00:38:19.539Z,63.04
2023-03-27T00:40:45.870Z,63.27
2023-03-27T00:43:12.260Z,63.98
2023-03-27T00:45:38.631Z,63.79
2023-03-27T00:48:05.094Z,63.46
2023-03-27T00:50:31.456Z,64.28
2023-03-27T00:52:57.790Z,64.03
2023-03-27T00:55:24.130Z,64.76
2023-03-27T00:57:50.464Z,65.32
2023-03-27T01:00:16.801Z,65.32
2023-03-27T01:02:43.261Z,65.43
2023-03-27T01:05:09.643Z,68.45
2023-03-27T01:07:36.046Z,69.60
2023-03-27T01:10:02.394Z,67.32
2023-03-27T01:12:28.748Z,68.98
2023-03-27T01:14:55.119Z,68.03
2023-03-27T01:17:21.515Z,68.03
2023-03-27T01:19:47.941Z,66.80
2023-03-27T01:22:14.286Z,66.50
2023-03-27T01:24:40.666Z,66.32
2023-03-27T01:27:07.003Z,65.99
2023-03-27T01:29:33.398Z,65.67
2023-03-27T01:31:59.788Z,65.98
2023-03-27T01:34:26.177Z,65.49
2023-03-27T01:36:52.574Z,66.42
2023-03-27T01:39:18.912Z,65.31
2023-03-27T01:41:45.254Z,65.84
2023-03-27T01:44:11.586Z,65.33
2023-03-27T01:46:38.040Z,66.06
2023-03-27T01:49:04.451Z,66.47
2023-03-27T01:51:30.824Z,66.19
2023-03-27T01:53:57.219Z,66.28
2023-03-27T01:56:23.603Z,66.67
2023-03-27T01:58:49.963Z,67.05
2023-03-27T02:01:16.359Z,66.16
2023-03-27T02:03:42.738Z,66.29
2023-03-27T02:06:09.083Z,66.69
2023-03-27T02:08:35.432Z,65.93
2023-03-27T02:11:01.829Z,66.76
2023-03-27T02:13:28.175Z,66.32
2023-03-27T02:15:54.520Z,66.60
2023-03-27T02:18:20.900Z,66.22
2023-03-27T02:20:47.235Z,66.65
2023-03-27T02:23:13.612Z,65.49
2023-03-27T02:25:39.994Z,65.46
2023-03-27T02:28:06.332Z,65.92
2023-03-27T02:30:32.694Z,65.56
2023-03-27T02:32:59.132Z,65.39
2023-03-27T02:35:25.504Z,65.73
2023-03-27T02:37:51.859Z,65.63
2023-03-27T02:40:18.190Z,65.33
2023-03-27T02:42:44.526Z,64.85
2023-03-27T02:45:10.853Z,65.00
2023-03-27T02:47:37.205Z,65.30
2023-03-27T02:50:03.654Z,65.61
2023-03-27T02:52:30.058Z,65.69
2023-03-27T02:54:56.438Z,65.16
2023-03-27T02:57:24.490Z,65.75
2023-03-27T02:59:51.471Z,65.69
2023-03-27T03:02:17.873Z,66.03
2023-03-27T03:04:44.344Z,65.75
2023-03-27T03:07:10.721Z,66.38
2023-03-27T03:09:40.570Z,66.02
2023-03-27T03:12:07.670Z,66.33
2023-03-27T03:14:34.008Z,65.97
2023-03-27T03:17:00.365Z,66.63
2023-03-27T03:19:26.744Z,66.47
2023-03-27T03:21:53.117Z,65.77
2023-03-27T03:24:19.486Z,66.22
2023-03-27T03:26:45.870Z,66.39
2023-03-27T03:29:13.003Z,65.91
2023-03-27T03:31:39.464Z,66.02
2023-03-27T03:34:05.823Z,65.47
2023-03-27T03:36:32.157Z,66.60
2023-03-27T03:38:58.488Z,65.79
2023-03-27T03:41:24.811Z,66.35
2023-03-27T03:43:51.203Z,65.45
2023-03-27T03:46:17.574Z,66.47
2023-03-27T03:48:43.980Z,65.55
2023-03-27T03:51:10.373Z,66.47
2023-03-27T03:53:36.719Z,65.65
2023-03-27T03:56:03.043Z,67.06
2023-03-27T03:58:34.723Z,66.67
2023-03-27T04:01:01.608Z,67.18
2023-03-27T04:03:27.984Z,67.46
2023-03-27T04:05:54.474Z,66.81
2023-03-27T04:08:20.813Z,65.42
2023-03-27T04:10:47.187Z,65.59
2023-03-27T04:13:13.556Z,65.17
2023-03-27T04:15:39.991Z,65.80
2023-03-27T04:18:06.673Z,66.19
2023-03-27T04:20:33.113Z,66.47
2023-03-27T04:22:59.486Z,66.67
2023-03-27T04:25:25.813Z,67.63
2023-03-27T04:27:52.182Z,62.45
2023-03-27T04:30:18.531Z,63.68
2023-03-27T04:32:44.946Z,64.79
2023-03-27T04:35:11.351Z,65.91
2023-03-27T04:37:37.694Z,65.58
2023-03-27T04:40:04.076Z,66.58
2023-03-27T04:42:30.468Z,66.92
2023-03-27T04:44:56.840Z,66.38
2023-03-27T04:47:23.248Z,66.92
2023-03-27T04:49:49.653Z,65.65
2023-03-27T04:52:16.031Z,66.99
2023-03-27T04:54:42.423Z,62.65
2023-03-27T04:57:08.812Z,64.09
2023-03-27T04:59:35.228Z,61.57
2023-03-27T05:02:01.660Z,64.49
2023-03-27T05:04:28.045Z,65.80
2023-03-27T05:06:54.436Z,64.94
2023-03-27T05:09:20.775Z,66.80
2023-03-27T05:11:47.142Z,67.97
2023-03-27T05:14:13.494Z,66.56
2023-03-27T05:16:39.954Z,67.92
2023-03-27T05:19:06.317Z,66.30
2023-03-27T05:21:32.696Z,66.71
2023-03-27T05:23:59.047Z,66.18
2023-03-27T05:26:25.372Z,65.19
2023-03-27T05:28:51.749Z,66.01
2023-03-27T05:31:18.111Z,67.82
2023-03-27T05:33:44.479Z,67.57
2023-03-27T05:36:10.865Z,68.27
2023-03-27T05:38:37.219Z,67.68
2023-03-27T05:41:03.551Z,63.63
2023-03-27T05:43:29.897Z,71.44
2023-03-27T05:45:56.295Z,70.49
2023-03-27T05:48:22.717Z,69.57
2023-03-27T05:50:49.106Z,67.29
2023-03-27T05:53:15.505Z,86.64
2023-03-27T05:55:41.900Z,77.93
2023-03-27T05:58:08.267Z,79.30
2023-03-27T06:00:34.606Z,82.71
2023-03-27T06:03:01.110Z,85.16
2023-03-27T06:05:27.558Z,83.49
2023-03-27T06:07:53.907Z,82.17
2023-03-27T06:10:20.304Z,82.81
2023-03-27T06:12:48.706Z,81.31
2023-03-27T06:15:15.397Z,83.37
2023-03-27T06:17:41.774Z,82.11
2023-03-27T06:20:08.118Z,82.69
2023-03-27T06:22:34.509Z,82.17
2023-03-27T06:25:00.845Z,80.57
2023-03-27T06:27:27.212Z,80.69
2023-03-27T06:29:53.603Z,82.09
2023-03-27T06:32:19.936Z,81.73
2023-03-27T06:34:46.306Z,80.98
2023-03-27T06:37:12.699Z,81.18
2023-03-27T06:39:39.040Z,77.93
2023-03-27T06:42:05.412Z,79.83
2023-03-27T06:44:31.751Z,78.04
2023-03-27T06:46:58.129Z,75.21
2023-03-27T06:49:24.479Z,79.90
2023-03-27T06:51:50.807Z,77.41
2023-03-27T06:54:17.180Z,75.03
2023-03-27T06:56:43.551Z,70.81
2023-03-27T06:59:09.935Z,69.75
2023-03-27T07:01:36.327Z,70.50
2023-03-27T07:04:02.726Z,69.97
2023-03-27T07:06:29.120Z,72.65
2023-03-27T07:08:55.515Z,76.61
2023-03-27T07:11:21.881Z,75.58
2023-03-27T07:13:48.240Z,72.99
2023-03-27T07:16:14.617Z,70.17
2023-03-27T07:18:41.015Z,62.65
2023-03-27T07:21:07.396Z,65.57
2023-03-27T07:23:33.821Z,60.27
2023-03-27T07:26:00.296Z,59.14
2023-03-27T07:28:26.655Z,58.01
2023-03-27T07:30:53.033Z,60.78
2023-03-27T07:33:19.456Z,60.91
2023-03-27T07:35:46.093Z,61.67
2023-03-27T07:38:12.494Z,57.54
2023-03-27T07:40:40.552Z,59.24
2023-03-27T07:43:07.309Z,59.21
2023-03-27T07:45:33.771Z,59.73
2023-03-27T07:48:00.221Z,59.20
2023-03-27T07:50:26.584Z,59.38
2023-03-27T07:52:52.964Z,61.64
2023-03-27T07:55:19.378Z,60.78
2023-03-27T07:57:59.872Z,59.48
2023-03-27T08:00:28.525Z,57.47
2023-03-27T08:02:55.019Z,55.38
2023-03-27T08:05:21.478Z,54.28
2023-03-27T08:07:47.831Z,55.35
2023-03-27T08:10:14.201Z,53.71
2023-03-27T08:12:40.556Z,56.33
2023-03-27T08:15:06.903Z,57.47
2023-03-27T08:17:33.295Z,55.36
2023-03-27T08:19:59.791Z,57.92
2023-03-27T08:22:26.168Z,61.95
2023-03-27T08:24:52.544Z,60.21
2023-03-27T08:27:18.932Z,55.57
2023-03-27T08:29:45.285Z,55.55
2023-03-27T08:32:11.633Z,57.94
2023-03-27T08:34:38.007Z,59.44
2023-03-27T08:37:04.391Z,58.07
2023-03-27T08:39:30.743Z,55.69
2023-03-27T08:41:57.125Z,55.20
2023-03-27T08:44:23.534Z,57.12
2023-03-27T08:46:49.966Z,60.97
2023-03-27T08:49:16.348Z,59.36
2023-03-27T08:51:42.730Z,57.56
2023-03-27T08:54:09.070Z,56.23
2023-03-27T08:56:35.460Z,57.83
2023-03-27T08:59:01.828Z,55.03
2023-03-27T09:01:28.325Z,56.54
2023-03-27T09:03:54.800Z,55.43
2023-03-27T09:06:21.226Z,56.86
2023-03-27T09:08:47.554Z,57.46
2023-03-27T09:11:13.925Z,57.26
2023-03-27T09:13:40.322Z,52.37
2023-03-27T09:16:06.695Z,52.01
2023-03-27T09:18:33.093Z,53.02
2023-03-27T09:20:59.413Z,51.94
2023-03-27T09:23:25.796Z,48.10
2023-03-27T09:25:52.142Z,48.12
2023-03-27T09:28:18.522Z,49.96
2023-03-27T09:30:44.908Z,50.73
2023-03-27T09:33:11.267Z,51.58
2023-03-27T09:35:37.645Z,50.75
2023-03-27T09:38:04.054Z,50.52
2023-03-27T09:40:30.505Z,49.37
2023-03-27T09:42:56.838Z,48.78
2023-03-27T09:45:23.180Z,48.56
2023-03-27T09:47:49.576Z,49.78
2023-03-27T09:50:15.956Z,49.69
2023-03-27T09:52:42.356Z,49.58
2023-03-27T09:55:08.694Z,50.15
2023-03-27T09:57:35.017Z,47.80
2023-03-27T10:00:02.489Z,49.12
2023-03-27T10:02:28.866Z,47.55
2023-03-27T10:04:55.278Z,47.95
2023-03-27T10:07:21.668Z,49.71
2023-03-27T10:09:48.015Z,49.52
2023-03-27T10:12:14.403Z,48.46
2023-03-27T10:14:40.749Z,49.59
2023-03-27T10:17:07.229Z,49.53
2023-03-27T10:19:33.718Z,50.47
2023-03-27T10:22:00.094Z,50.71
2023-03-27T10:24:26.459Z,51.72
2023-03-27T10:26:52.841Z,49.44
2023-03-27T10:29:19.190Z,52.39
2023-03-27T10:31:45.560Z,51.41
2023-03-27T10:34:11.922Z,51.62
2023-03-27T10:36:38.348Z,51.53
2023-03-27T10:39:04.746Z,50.60
2023-03-27T10:41:31.088Z,48.74
2023-03-27T10:43:57.495Z,48.37
2023-03-27T10:46:23.944Z,50.68
2023-03-27T10:48:50.373Z,51.38
2023-03-27T10:51:16.716Z,49.33
2023-03-27T10:53:43.197Z,51.17
2023-03-27T10:56:09.669Z,49.31
2023-03-27T10:58:36.015Z,50.33
2023-03-27T11:01:02.480Z,51.33
2023-03-27T11:03:28.992Z,50.16
2023-03-27T11:05:55.416Z,50.74
2023-03-27T11:08:21.842Z,47.86
2023-03-27T11:10:48.201Z,46.39
2023-03-27T11:13:14.581Z,44.15
2023-03-27T11:15:40.913Z,45.00
2023-03-27T11:18:07.348Z,45.59
2023-03-27T11:20:33.747Z,44.63
2023-03-27T11:23:00.112Z,44.81
2023-03-27T11:25:26.472Z,43.69
2023-03-27T11:27:52.838Z,44.19
2023-03-27T11:30:19.183Z,43.17
2023-03-27T11:32:45.574Z,43.95
2023-03-27T11:35:11.960Z,44.69
2023-03-27T11:37:38.352Z,44.50
2023-03-27T11:40:04.693Z,45.16
2023-03-27T11:42:31.157Z,44.81
2023-03-27T11:44:57.569Z,41.46
2023-03-27T11:47:23.952Z,42.71
2023-03-27T11:49:50.353Z,41.75
2023-03-27T11:52:16.698Z,43.10
2023-03-27T11:54:43.081Z,42.38
2023-03-27T11:57:09.457Z,45.28
2023-03-27T11:59:35.845Z,44.65
2023-03-27T12:02:02.316Z,42.84
2023-03-27T12:04:28.721Z,44.00
2023-03-27T12:06:55.124Z,40.30
2023-03-27T12:09:21.473Z,41.86
2023-03-27T12:11:47.855Z,40.00
2023-03-27T12:14:18.456Z,42.01
2023-03-27T12:16:45.341Z,41.54
2023-03-27T12:19:26.896Z,42.18
2023-03-27T12:21:54.634Z,41.95
2023-03-27T12:24:20.984Z,41.96
2023-03-27T12:26:47.373Z,42.22
2023-03-27T12:29:23.347Z,42.32
2023-03-27T12:31:50.680Z,40.50
2023-03-27T12:34:17.141Z,40.66
2023-03-27T12:36:43.483Z,40.92
2023-03-27T12:39:09.847Z,45.31
2023-03-27T12:41:36.190Z,42.56
2023-03-27T12:44:02.567Z,41.22
2023-03-27T12:46:29.001Z,41.36
2023-03-27T12:48:55.392Z,41.52
2023-03-27T12:51:21.738Z,40.87
2023-03-27T12:53:48.393Z,41.52
2023-03-27T12:56:14.829Z,41.41
2023-03-27T12:58:41.268Z,40.47
2023-03-27T13:01:07.712Z,40.58
2023-03-27T13:03:34.238Z,42.18
2023-03-27T13:06:00.707Z,41.43
2023-03-27T13:08:27.150Z,40.70
2023-03-27T13:10:53.519Z,42.21
2023-03-27T13:13:19.891Z,40.59
2023-03-27T13:15:46.304Z,41.11
2023-03-27T13:18:12.669Z,39.86
2023-03-27T13:20:39.040Z,39.68
2023-03-27T13:23:05.378Z,42.63
2023-03-27T13:25:31.771Z,42.74
2023-03-27T13:27:58.131Z,40.52
2023-03-27T13:30:24.509Z,41.65
2023-03-27T13:32:50.860Z,43.28
2023-03-27T13:35:17.223Z,41.70
2023-03-27T13:37:43.596Z,42.77
2023-03-27T13:40:09.941Z,42.28
2023-03-27T13:42:36.278Z,42.74
2023-03-27T13:45:02.646Z,43.04
2023-03-27T13:47:29.054Z,39.85
2023-03-27T13:49:55.432Z,40.45
2023-03-27T13:52:21.812Z,38.42
2023-03-27T13:54:48.161Z,38.23
2023-03-27T13:57:14.597Z,39.79
2023-03-27T13:59:40.987Z,40.06
2023-03-27T14:02:07.355Z,40.11
2023-03-27T14:04:33.764Z,41.15
2023-03-27T14:07:00.152Z,39.67
2023-03-27T14:09:26.509Z,40.20
2023-03-27T14:11:52.842Z,40.98
2023-03-27T14:14:19.219Z,39.63
2023-03-27T14:16:45.628Z,40.55
2023-03-27T14:19:12.087Z,39.07
2023-03-27T14:21:39.151Z,40.25
2023-03-27T14:24:05.579Z,40.42
2023-03-27T14:26:31.969Z,37.42
2023-03-27T14:28:58.320Z,38.03
2023-03-27T14:31:24.728Z,39.15
2023-03-27T14:33:51.133Z,39.18
2023-03-27T14:36:17.510Z,36.80
2023-03-27T14:38:43.873Z,37.62
2023-03-27T14:41:10.254Z,38.57
2023-03-27T14:43:36.592Z,38.22
2023-03-27T14:46:02.950Z,39.60
2023-03-27T14:48:29.374Z,36.65
2023-03-27T14:50:55.940Z,38.39
2023-03-27T14:53:22.544Z,38.62
2023-03-27T14:55:48.933Z,39.79
2023-03-27T14:58:15.325Z,40.42
2023-03-27T15:00:41.678Z,40.64
2023-03-27T15:03:08.071Z,40.26
2023-03-27T15:05:34.465Z,40.14
2023-03-27T15:08:00.821Z,39.32
2023-03-27T15:10:27.207Z,41.36
2023-03-27T15:12:53.597Z,40.35
2023-03-27T15:15:19.941Z,40.71
2023-03-27T15:17:46.304Z,39.67
2023-03-27T15:20:12.769Z,40.00
2023-03-27T15:22:39.160Z,39.22
2023-03-27T15:25:05.564Z,38.53
2023-03-27T15:27:31.944Z,39.26
2023-03-27T15:29:58.610Z,39.02
2023-03-27T15:32:24.970Z,38.45
2023-03-27T15:34:51.370Z,36.80
2023-03-27T15:37:17.753Z,36.08
2023-03-27T15:39:44.136Z,36.57
2023-03-27T15:42:10.531Z,35.97
2023-03-27T15:44:36.885Z,36.88
2023-03-27T15:47:03.275Z,37.41
2023-03-27T15:49:29.646Z,37.43
2023-03-27T15:51:56.019Z,38.49
2023-03-27T15:54:22.533Z,38.48
2023-03-27T15:56:48.994Z,38.00
2023-03-27T15:59:15.404Z,37.63
2023-03-27T16:01:41.937Z,38.73
2023-03-27T16:04:08.497Z,37.49
2023-03-27T16:06:34.961Z,39.16
2023-03-27T16:09:01.345Z,38.43
2023-03-27T16:11:27.693Z,39.07
2023-03-27T16:13:54.029Z,39.46
2023-03-27T16:16:20.371Z,39.54
2023-03-27T16:18:46.729Z,39.11
2023-03-27T16:21:13.116Z,40.38
2023-03-27T16:23:39.460Z,38.89
2023-03-27T16:26:05.823Z,38.41
2023-03-27T16:28:32.199Z,38.32
2023-03-27T16:30:58.582Z,38.91
2023-03-27T16:33:24.943Z,38.25
2023-03-27T16:35:51.377Z,38.51
2023-03-27T16:38:17.753Z,39.03
2023-03-27T16:40:44.135Z,38.17
2023-03-27T16:43:10.485Z,37.79
2023-03-27T16:45:36.881Z,38.27
2023-03-27T16:48:03.269Z,37.91
2023-03-27T16:50:29.753Z,37.97
2023-03-27T16:52:56.166Z,38.71
2023-03-27T16:55:22.514Z,38.19
2023-03-27T16:57:48.942Z,39.87
2023-03-27T17:00:15.311Z,40.33
2023-03-27T17:02:41.697Z,40.27
2023-03-27T17:05:08.184Z,40.34
2023-03-27T17:07:34.569Z,40.29
2023-03-27T17:10:00.972Z,40.33
2023-03-27T17:12:27.366Z,40.35
2023-03-27T17:14:53.717Z,39.78
2023-03-27T17:17:20.060Z,40.15
2023-03-27T17:19:46.452Z,41.02
2023-03-27T17:22:12.826Z,42.74
2023-03-27T17:24:53.377Z,40.87
2023-03-27T17:27:22.815Z,40.18
2023-03-27T17:29:49.190Z,40.89
2023-03-27T17:32:15.534Z,40.58
2023-03-27T17:34:41.858Z,41.36
2023-03-27T17:37:08.263Z,41.32
2023-03-27T17:39:34.599Z,41.22
2023-03-27T17:42:00.984Z,41.61
2023-03-27T17:44:27.588Z,42.61
2023-03-27T17:46:53.989Z,42.78
2023-03-27T17:49:20.362Z,43.45
2023-03-27T17:51:46.739Z,42.99
2023-03-27T17:54:13.102Z,43.61
2023-03-27T17:56:39.497Z,42.71
2023-03-27T17:59:05.866Z,42.60
2023-03-27T18:01:32.309Z,40.03
2023-03-27T18:03:58.780Z,38.22
2023-03-27T18:06:25.268Z,38.70
2023-03-27T18:08:51.620Z,39.95
2023-03-27T18:11:18.179Z,41.54
2023-03-27T18:13:44.628Z,42.84
2023-03-27T18:16:11.081Z,43.39
2023-03-27T18:18:37.504Z,43.22
2023-03-27T18:21:03.917Z,43.75
2023-03-27T18:23:30.257Z,43.11
2023-03-27T18:25:56.674Z,43.94
2023-03-27T18:28:23.218Z,45.29
2023-03-27T18:30:49.552Z,43.83
2023-03-27T18:33:15.933Z,44.32
2023-03-27T18:35:42.324Z,43.65
2023-03-27T18:38:08.675Z,42.44
2023-03-27T18:40:35.060Z,43.28
2023-03-27T18:43:01.453Z,47.50
2023-03-27T18:45:27.902Z,43.69
2023-03-27T18:47:54.283Z,42.11
2023-03-27T18:50:20.649Z,42.15
2023-03-27T18:52:47.033Z,44.10
2023-03-27T18:55:13.382Z,43.24
2023-03-27T18:57:39.745Z,42.81
2023-03-27T19:00:06.153Z,42.46
2023-03-27T19:02:32.676Z,41.84
2023-03-27T19:04:59.116Z,41.37
2023-03-27T19:07:25.457Z,43.97
2023-03-27T19:09:51.841Z,43.19
2023-03-27T19:12:18.183Z,43.88
2023-03-27T19:14:44.561Z,42.98
2023-03-27T19:17:11.012Z,43.48
2023-03-27T19:19:37.456Z,43.85
2023-03-27T19:22:03.847Z,44.77
2023-03-27T19:24:30.228Z,43.08
2023-03-27T19:26:56.624Z,42.35
2023-03-27T19:29:23.015Z,42.72
2023-03-27T19:31:49.412Z,43.16
2023-03-27T19:34:15.814Z,42.37
2023-03-27T19:36:42.201Z,43.58
2023-03-27T19:39:08.592Z,44.13
2023-03-27T19:41:34.970Z,43.76
2023-03-27T19:44:01.318Z,42.90
2023-03-27T19:46:27.715Z,43.49
2023-03-27T19:48:54.122Z,44.31
2023-03-27T19:51:20.504Z,45.75
2023-03-27T19:53:46.888Z,45.58
2023-03-27T19:56:13.269Z,45.17
2023-03-27T19:58:39.660Z,46.08
2023-03-27T20:01:06.031Z,45.91
2023-03-27T20:03:32.508Z,46.51
2023-03-27T20:06:07.816Z,45.38
2023-03-27T20:08:35.110Z,47.01
2023-03-27T20:11:01.641Z,48.12
2023-03-27T20:13:28.114Z,49.60
2023-03-27T20:15:54.530Z,50.61
2023-03-27T20:18:20.958Z,50.32
2023-03-27T20:20:47.341Z,49.47
2023-03-27T20:23:13.681Z,48.88
2023-03-27T20:25:40.058Z,49.70
2023-03-27T20:28:06.459Z,49.12
2023-03-27T20:30:32.804Z,50.49
2023-03-27T20:32:59.218Z,51.42
2023-03-27T20:35:25.627Z,49.28
2023-03-27T20:37:51.973Z,47.54
2023-03-27T20:40:18.310Z,47.56
2023-03-27T20:42:44.676Z,48.45
2023-03-27T20:45:11.029Z,46.77
2023-03-27T20:47:37.375Z,47.02
2023-03-27T20:50:03.718Z,48.22
2023-03-27T20:52:30.088Z,47.93
2023-03-27T20:54:56.450Z,47.56
2023-03-27T20:57:22.853Z,46.63
2023-03-27T20:59:49.311Z,47.46
2023-03-27T21:02:15.714Z,45.84
2023-03-27T21:04:42.116Z,45.37
2023-03-27T21:07:08.513Z,45.21
2023-03-27T21:09:34.855Z,46.16
2023-03-27T21:12:01.207Z,47.34
2023-03-27T21:14:27.565Z,47.96
2023-03-27T21:16:53.955Z,46.92
2023-03-27T21:19:20.356Z,47.35
2023-03-27T21:21:46.735Z,48.60
2023-03-27T21:24:13.087Z,51.44
2023-03-27T21:26:39.443Z,53.70
2023-03-27T21:29:05.773Z,52.83
2023-03-27T21:31:32.136Z,53.13
2023-03-27T21:33:58.493Z,54.23
2023-03-27T21:36:27.109Z,54.12
2023-03-27T21:38:54.417Z,53.22
2023-03-27T21:41:20.762Z,54.26
2023-03-27T21:43:47.169Z,54.70
2023-03-27T21:46:13.548Z,54.88
2023-03-27T21:48:39.962Z,52.57
2023-03-27T21:51:06.379Z,51.53
2023-03-27T21:53:32.767Z,50.96
2023-03-27T21:55:59.393Z,50.65
2023-03-27T21:58:25.899Z,50.03
2023-03-27T22:00:52.313Z,49.66
2023-03-27T22:03:18.711Z,49.34
2023-03-27T22:05:49.296Z,49.94
2023-03-27T22:08:24.044Z,49.61
2023-03-27T22:10:50.383Z,48.50
2023-03-27T22:13:16.767Z,49.57
2023-03-27T22:15:43.161Z,49.03
2023-03-27T22:18:09.606Z,48.69
2023-03-27T22:20:36.061Z,48.99
2023-03-27T22:23:02.448Z,48.07
2023-03-27T22:25:28.824Z,47.96
2023-03-27T22:27:55.211Z,47.99
2023-03-27T22:30:21.567Z,49.02
2023-03-27T22:32:48.005Z,48.16
2023-03-27T22:35:14.419Z,49.19
2023-03-27T22:37:40.813Z,49.51
2023-03-27T22:40:07.209Z,49.95
2023-03-27T22:42:33.600Z,50.47
2023-03-27T22:44:59.981Z,50.39
2023-03-27T22:47:26.387Z,49.79
2023-03-27T22:49:52.759Z,49.93
2023-03-27T22:52:19.136Z,50.36
2023-03-27T22:54:45.527Z,50.16
2023-03-27T22:57:11.947Z,50.06
2023-03-27T22:59:38.370Z,50.35
2023-03-27T23:02:04.815Z,50.35
2023-03-27T23:04:31.220Z,51.51
2023-03-27T23:06:57.554Z,50.61
2023-03-27T23:09:23.879Z,52.00
2023-03-27T23:11:50.222Z,51.98
2023-03-27T23:14:16.546Z,50.91
2023-03-27T23:16:42.943Z,50.89
2023-03-27T23:19:09.335Z,52.09
2023-03-27T23:21:35.773Z,51.73
2023-03-27T23:24:02.163Z,51.37
2023-03-27T23:26:28.511Z,53.39
2023-03-27T23:28:54.873Z,53.09
2023-03-27T23:31:21.244Z,53.41
2023-03-27T23:33:47.642Z,52.09
2023-03-27T23:36:14.078Z,54.25
2023-03-27T23:38:40.461Z,53.77
2023-03-27T23:41:06.854Z,53.43
2023-03-27T23:43:33.207Z,54.59
2023-03-27T23:45:59.810Z,55.47
2023-03-27T23:48:26.557Z,55.36
2023-03-27T23:50:52.926Z,56.05
2023-03-27T23:53:19.280Z,56.86
2023-03-27T23:55:45.649Z,57.59
2023-03-27T23:58:11.990Z,56.48
